Dalhart Municipal Airport Dalhart US
ICAO: KDHT
IATA: DHT
Category: Medium
Scheduled Services: No

Elevation: 3991 ft
TransAlt. 18000 ft.

Airport Communications:
ASOS:134.075
ALBUQUERQUE CNTR:127.85
FORT WORTH RDO:122.2
CTAF/UNICOM:122.95

KDHT Zoom In..

If you have problems with the map follow the link
https://www.worldairports.se/pages/airport.php?
ICAO=KDHT

Runways:

(A) RW 03 length 5440 ft width 75 ft
---- / hdg 36

(B) RW 17 length 6400 ft width 75 ft
---- / hdg 171

(C) RW 21 length 5440 ft width 75 ft
---- / hdg 216

(D) RW 35 length 6400 ft width 75 ft
---- / hdg 351

Location; KDHT
Day. 22 / Time. 10.53 Zulu
* Altimeter: 29.77
* Temperature: 02° c. 35.6°f.
* Wind from: 250° Speed 08 kn.
Dewpoint: 01° c.
Visibility: 7 Statute Miles.
Clouds: Scattered 700 ft.

KDHT 221053Z AUTO 25008KT 7SM SCT007 02/01 A2977 RMK AO2 SLP077 T00220011


Wind From 250°
Speed 08 kn.

 
 
jpsmedia worldairports.se 2020   terms of use